Time;durP1;ratioP1;P1;durP2;ratioP2;P2;SDS_P1;SDS_P2;PMS_P1;PMS_P2;Temp;Humidity;BMP_temperature;BMP_pressure;BME280_temperature;BME280_humidity;BME280_pressure;Samples;Min_cycle;Max_cycle;Signal;HPM_P1;HPM_P2
2022/06/20 00:03:23;;;;;;;10.00;8.87;;;28.60;29.40;;;;;;10527815;28;20323;-75
2022/06/20 00:08:28;;;;;;;10.30;9.30;;;28.50;29.80;;;;;;10507470;28;20227;-75
2022/06/20 00:13:33;;;;;;;10.47;9.47;;;28.30;29.50;;;;;;10501514;28;20227;-75
2022/06/20 00:18:36;;;;;;;11.73;10.03;;;28.20;29.70;;;;;;10504221;28;20227;-75
2022/06/20 00:23:41;;;;;;;15.33;10.47;;;28.00;29.80;;;;;;10503398;28;20224;-75
2022/06/20 00:28:45;;;;;;;10.13;9.23;;;28.00;30.20;;;;;;10513140;28;20224;-75
2022/06/20 00:33:48;;;;;;;11.10;9.87;;;27.80;30.10;;;;;;10511725;28;20219;-75
2022/06/20 00:38:55;;;;;;;10.63;9.63;;;27.60;30.00;;;;;;10507930;28;20234;-75
2022/06/20 00:43:59;;;;;;;11.33;9.67;;;27.50;30.80;;;;;;10513635;28;20224;-75
2022/06/20 00:49:09;;;;;;;9.83;8.83;;;27.50;30.00;;;;;;10502607;28;20243;-75
2022/06/20 00:54:23;;;;;;;10.50;9.53;;;27.40;31.20;;;;;;10504496;28;21013;-75
2022/06/20 00:59:32;;;;;;;10.27;9.47;;;27.30;31.20;;;;;;10502904;28;20735;-75
2022/06/20 01:04:41;;;;;;;11.43;10.43;;;27.40;31.10;;;;;;10508764;28;20231;-75
2022/06/20 01:09:50;;;;;;;11.10;10.00;;;27.30;31.20;;;;;;10503864;28;20234;-75
2022/06/20 01:14:53;;;;;;;14.50;10.77;;;27.40;31.30;;;;;;10510277;27;20232;-75
2022/06/20 01:20:01;;;;;;;12.10;10.90;;;27.30;30.60;;;;;;10503508;28;21035;-75
2022/06/20 01:25:28;;;;;;;10.73;9.73;;;27.30;31.70;;;;;;10507559;28;20238;-75
2022/06/20 01:30:36;;;;;;;11.90;10.37;;;27.20;31.80;;;;;;10507696;28;20238;-75
2022/06/20 01:46:32;;;;;;;12.57;11.00;;;26.50;31.50;;;;;;10502256;28;20231;-75
2022/06/20 01:51:42;;;;;;;11.73;10.20;;;26.20;33.10;;;;;;10504587;28;20728;-75
2022/06/20 01:56:47;;;;;;;14.10;10.37;;;26.10;33.20;;;;;;10505205;28;20252;-75
2022/06/20 02:01:54;;;;;;;10.10;9.10;;;26.00;32.80;;;;;;10505159;28;20229;-75
2022/06/20 02:06:57;;;;;;;9.77;8.87;;;26.00;33.20;;;;;;10501622;28;20228;-75
2022/06/20 02:12:01;;;;;;;9.87;9.00;;;26.00;32.60;;;;;;10507391;28;20585;-75
2022/06/20 02:17:10;;;;;;;11.37;10.17;;;26.00;32.70;;;;;;10503727;28;20299;-75
2022/06/20 02:22:16;;;;;;;11.70;9.63;;;25.90;33.70;;;;;;10503088;28;20979;-75
2022/06/20 02:27:25;;;;;;;12.30;9.73;;;25.90;33.30;;;;;;10500674;28;20238;-75
2022/06/20 02:32:33;;;;;;;11.63;10.43;;;25.80;34.00;;;;;;10508093;28;20220;-75
2022/06/20 02:37:37;;;;;;;11.43;10.20;;;25.70;34.40;;;;;;10499944;28;20318;-75
2022/06/20 02:42:46;;;;;;;10.77;9.70;;;25.60;33.30;;;;;;10504734;28;20805;-75
2022/06/20 02:48:00;;;;;;;11.40;10.30;;;25.60;34.20;;;;;;10499809;28;20231;-75
2022/06/20 02:53:07;;;;;;;12.37;10.63;;;25.60;34.80;;;;;;10509129;28;20707;-75
2022/06/20 02:58:17;;;;;;;12.07;10.77;;;25.50;34.70;;;;;;10497582;28;20231;-75
2022/06/20 03:03:31;;;;;;;11.73;10.60;;;25.30;34.70;;;;;;10502960;28;20701;-75
2022/06/20 03:08:35;;;;;;;11.57;10.37;;;25.10;35.10;;;;;;10502200;28;20315;-75
2022/06/20 03:13:40;;;;;;;11.00;9.90;;;24.90;34.20;;;;;;10500343;28;20232;-75
2022/06/20 03:18:49;;;;;;;12.23;11.07;;;24.80;34.60;;;;;;10499511;28;20240;-75
2022/06/20 03:23:52;;;;;;;11.70;10.53;;;24.70;36.00;;;;;;10501939;28;20703;-75
2022/06/20 03:28:56;;;;;;;12.83;10.33;;;24.60;34.90;;;;;;10498291;28;20231;-75
2022/06/20 03:34:00;;;;;;;9.43;8.53;;;24.70;35.30;;;;;;10501520;28;20593;-75
2022/06/20 03:39:06;;;;;;;14.00;10.23;;;24.70;35.70;;;;;;10509614;27;20228;-75
2022/06/20 03:44:14;;;;;;;15.47;10.80;;;24.70;36.00;;;;;;10501487;28;20223;-75
2022/06/20 03:49:25;;;;;;;11.80;9.90;;;24.70;36.30;;;;;;10497578;28;20227;-75
2022/06/20 03:54:35;;;;;;;13.23;10.47;;;24.70;36.50;;;;;;10500980;28;20242;-75
2022/06/20 03:59:41;;;;;;;11.30;10.23;;;24.70;36.60;;;;;;10512575;28;20228;-75
2022/06/20 04:04:52;;;;;;;12.83;10.10;;;24.80;36.70;;;;;;10509048;28;20659;-75
2022/06/20 04:15:25;;;;;;;12.00;10.23;;;24.70;37.00;;;;;;10513227;28;20587;-75
2022/06/20 04:20:38;;;;;;;12.13;10.37;;;24.80;37.00;;;;;;10550713;28;20238;-75
2022/06/20 04:25:46;;;;;;;13.63;10.03;;;24.70;37.40;;;;;;10552620;27;20224;-76
2022/06/20 04:30:54;;;;;;;13.33;10.70;;;24.70;37.40;;;;;;10551425;27;20239;-76
2022/06/20 04:36:11;;;;;;;12.27;9.50;;;24.60;37.40;;;;;;10544956;27;20284;-76
2022/06/20 04:41:19;;;;;;;11.57;9.70;;;24.70;36.60;;;;;;10548727;27;20215;-74
2022/06/20 04:46:28;;;;;;;13.20;9.37;;;24.70;36.20;;;;;;10546510;27;20224;-75
2022/06/20 04:51:36;;;;;;;14.37;9.47;;;24.90;36.10;;;;;;10548505;28;20227;-75
2022/06/20 04:56:39;;;;;;;13.97;9.90;;;25.10;35.90;;;;;;10544458;28;20595;-75
2022/06/20 05:01:43;;;;;;;12.63;9.83;;;25.30;35.50;;;;;;10538673;28;20223;-75
2022/06/20 05:06:48;;;;;;;12.37;9.77;;;25.50;35.30;;;;;;10546141;28;20223;-74
2022/06/20 05:11:58;;;;;;;12.33;9.30;;;25.70;35.30;;;;;;10548943;28;20237;-74
2022/06/20 05:17:03;;;;;;;11.63;8.87;;;26.00;35.30;;;;;;10504403;28;20220;-75
2022/06/20 05:22:13;;;;;;;11.13;8.50;;;26.20;34.70;;;;;;10506379;28;20220;-75
2022/06/20 05:27:20;;;;;;;8.67;7.83;;;26.40;34.50;;;;;;10500793;28;20232;-75
2022/06/20 05:32:35;;;;;;;11.20;8.63;;;26.70;34.70;;;;;;10499877;28;20232;-75
2022/06/20 05:37:45;;;;;;;11.10;8.50;;;26.80;34.40;;;;;;10497199;28;20234;-75
2022/06/20 05:42:49;;;;;;;11.17;8.50;;;27.00;33.30;;;;;;10493862;28;20712;-75
2022/06/20 05:47:54;;;;;;;10.03;7.00;;;27.20;32.90;;;;;;10543019;28;20230;-75
2022/06/20 05:53:01;;;;;;;10.23;6.60;;;27.40;32.50;;;;;;10541996;27;20222;-75
2022/06/20 05:58:08;;;;;;;8.27;6.30;;;27.50;31.50;;;;;;10532312;28;20241;-74
2022/06/20 06:03:14;;;;;;;9.00;6.17;;;27.60;30.60;;;;;;10539664;28;20226;-74
2022/06/20 06:08:25;;;;;;;11.50;6.10;;;27.70;30.10;;;;;;10537483;28;20976;-75
2022/06/20 06:13:53;;;;;;;6.90;5.73;;;27.80;29.70;;;;;;10538164;28;20629;-76
2022/06/20 06:19:03;;;;;;;12.10;5.93;;;27.90;29.80;;;;;;10541324;28;20675;-75
2022/06/20 06:24:13;;;;;;;8.33;5.93;;;27.90;29.50;;;;;;10532843;28;20211;-75
2022/06/20 06:29:23;;;;;;;10.23;5.40;;;28.00;29.30;;;;;;10537857;28;20234;-75
2022/06/20 06:37:30;;;;;;;9.23;5.40;;;28.10;28.30;;;;;;10437040;27;20563;-75
2022/06/20 06:42:34;;;;;;;8.77;5.07;;;27.90;29.30;;;;;;10414341;28;20598;-72
2022/06/20 06:47:42;;;;;;;7.97;5.33;;;28.00;29.60;;;;;;10381711;28;20256;-73
2022/06/20 06:52:52;;;;;;;6.30;5.27;;;28.20;29.50;;;;;;10407697;28;20237;-73
2022/06/20 06:58:02;;;;;;;10.80;5.03;;;28.30;28.50;;;;;;10388986;28;20255;-72
2022/06/20 07:03:12;;;;;;;8.13;5.10;;;28.40;28.30;;;;;;10386506;28;20237;-71
2022/06/20 07:08:23;;;;;;;7.10;4.50;;;28.60;27.70;;;;;;10408670;28;20268;-74
2022/06/20 07:13:37;;;;;;;5.57;4.30;;;28.80;27.90;;;;;;10406542;28;20226;-75
2022/06/20 07:18:43;;;;;;;5.17;4.67;;;29.00;27.90;;;;;;10376326;28;20295;-75
2022/06/20 07:23:56;;;;;;;7.83;4.70;;;29.10;27.90;;;;;;10409695;28;20221;-75
2022/06/20 07:29:04;;;;;;;7.77;4.60;;;29.20;27.60;;;;;;10428594;28;20224;-72
2022/06/20 07:34:13;;;;;;;7.00;4.33;;;29.30;27.30;;;;;;10395955;28;20229;-72
2022/06/20 07:39:21;;;;;;;6.97;4.70;;;29.40;27.30;;;;;;10394215;28;20564;-72
2022/06/20 07:44:30;;;;;;;6.13;4.47;;;29.40;26.90;;;;;;10389759;28;20225;-72
2022/06/20 07:49:39;;;;;;;6.07;4.03;;;29.50;27.20;;;;;;10392993;28;20250;-76
2022/06/20 07:54:48;;;;;;;6.87;4.70;;;29.50;27.00;;;;;;10354795;28;21016;-76
2022/06/20 07:59:58;;;;;;;4.90;4.43;;;29.60;27.10;;;;;;10383496;28;20225;-72
2022/06/20 08:05:04;;;;;;;5.80;4.50;;;29.70;27.30;;;;;;10393184;28;20605;-71
2022/06/20 08:10:19;;;;;;;7.10;4.63;;;29.80;27.10;;;;;;10398174;28;20221;-71
2022/06/20 08:15:34;;;;;;;8.53;4.83;;;29.80;26.50;;;;;;10362131;28;20353;-70
2022/06/20 08:20:43;;;;;;;8.20;4.80;;;29.90;26.40;;;;;;10394613;28;20226;-71
2022/06/20 08:25:53;;;;;;;6.70;4.80;;;30.00;26.60;;;;;;10396377;28;20222;-75
2022/06/20 08:31:11;;;;;;;5.37;4.87;;;30.10;26.60;;;;;;10378900;28;20887;-71
2022/06/20 08:36:22;;;;;;;5.47;4.67;;;30.10;26.70;;;;;;10351978;28;20230;-70
2022/06/20 08:42:02;;;;;;;7.37;4.60;;;30.20;26.10;;;;;;10354477;28;20221;-75
2022/06/20 08:47:51;;;;;;;8.47;4.27;;;30.30;26.60;;;;;;10359281;28;20236;-72
2022/06/20 08:53:34;;;;;;;8.30;4.10;;;30.40;25.80;;;;;;10353435;28;20221;-76
2022/06/20 08:58:50;;;;;;;5.90;4.13;;;30.40;25.70;;;;;;10391190;28;20225;-76
2022/06/20 09:04:24;;;;;;;5.73;4.40;;;30.50;25.50;;;;;;10394221;28;20217;-77
2022/06/20 09:09:56;;;;;;;6.23;4.30;;;30.50;25.50;;;;;;10395581;28;21839;-77
2022/06/20 09:15:12;;;;;;;5.37;3.90;;;30.60;25.40;;;;;;10373432;28;20703;-77
2022/06/20 09:20:30;;;;;;;5.93;4.10;;;30.60;25.20;;;;;;10359117;28;20575;-76
2022/06/20 09:25:41;;;;;;;6.07;4.20;;;30.70;24.80;;;;;;10370907;28;20225;-77
2022/06/20 09:30:57;;;;;;;6.90;4.20;;;30.60;24.40;;;;;;10378125;28;20276;-77
2022/06/20 09:36:33;;;;;;;6.60;4.27;;;30.70;24.70;;;;;;10362980;28;20224;-76
2022/06/20 09:41:47;;;;;;;4.77;4.27;;;30.70;24.60;;;;;;10390734;28;20595;-77
2022/06/20 09:47:08;;;;;;;4.63;4.00;;;30.80;24.40;;;;;;10356314;28;20230;-72
2022/06/20 09:52:20;;;;;;;7.73;4.23;;;30.90;24.30;;;;;;10355649;28;20325;-71
2022/06/20 09:57:35;;;;;;;6.60;3.97;;;30.90;23.80;;;;;;10396734;28;20358;-71
2022/06/20 10:02:48;;;;;;;5.07;4.30;;;30.90;24.30;;;;;;10386145;28;20237;-71
2022/06/20 10:07:57;;;;;;;5.50;3.90;;;30.90;23.80;;;;;;10392251;28;20876;-71
2022/06/20 10:13:10;;;;;;;6.03;4.10;;;30.80;23.10;;;;;;10356052;28;20227;-71
2022/06/20 10:18:23;;;;;;;4.53;4.10;;;30.80;24.50;;;;;;10343935;28;20229;-71
2022/06/20 10:24:04;;;;;;;4.30;3.90;;;30.70;24.10;;;;;;10346608;28;20229;-77
2022/06/20 10:29:16;;;;;;;4.47;3.90;;;30.70;24.20;;;;;;10348574;28;20226;-76
2022/06/20 10:34:32;;;;;;;4.57;4.13;;;30.80;24.00;;;;;;10355182;28;20225;-76
2022/06/20 10:39:46;;;;;;;7.97;4.40;;;30.80;23.80;;;;;;10376310;28;20238;-81
2022/06/20 10:45:07;;;;;;;5.00;4.07;;;30.80;23.50;;;;;;10352829;28;20223;-76
2022/06/20 10:50:33;;;;;;;5.20;4.17;;;30.80;23.50;;;;;;10387735;28;20217;-76
2022/06/20 10:55:46;;;;;;;6.20;4.40;;;30.90;24.00;;;;;;10387671;28;20901;-76
2022/06/20 11:00:54;;;;;;;4.67;4.10;;;31.00;22.90;;;;;;10386883;28;20233;-76
2022/06/20 11:06:08;;;;;;;5.87;4.40;;;31.20;23.50;;;;;;10377886;28;20230;-77
2022/06/20 11:11:30;;;;;;;5.07;4.57;;;31.40;23.00;;;;;;10351647;28;20310;-76
2022/06/20 11:16:40;;;;;;;6.40;4.37;;;31.60;23.10;;;;;;10392420;28;20599;-76
2022/06/20 11:21:56;;;;;;;6.00;4.63;;;31.80;22.00;;;;;;10376330;28;20236;-77
2022/06/20 11:27:16;;;;;;;4.57;4.27;;;31.90;22.10;;;;;;10390152;28;20236;-77
2022/06/20 11:32:31;;;;;;;4.93;4.53;;;32.00;22.20;;;;;;10384347;28;20233;-77
2022/06/20 11:37:53;;;;;;;4.83;4.30;;;32.00;22.10;;;;;;10362790;28;20721;-77
2022/06/20 11:43:46;;;;;;;7.43;4.80;;;32.00;22.10;;;;;;10387096;28;20225;-78
2022/06/20 11:49:02;;;;;;;5.40;4.90;;;32.10;21.60;;;;;;10347990;28;20221;-72
2022/06/20 11:54:18;;;;;;;4.83;4.33;;;32.20;22.20;;;;;;10388477;28;20323;-72
2022/06/20 11:59:36;;;;;;;5.83;4.50;;;32.20;22.20;;;;;;10390145;28;20615;-71
2022/06/20 12:04:46;;;;;;;5.50;4.73;;;32.20;22.20;;;;;;10396043;28;20228;-73
2022/06/20 12:10:20;;;;;;;4.87;4.47;;;32.20;22.20;;;;;;10388870;28;20231;-72
2022/06/20 12:15:34;;;;;;;6.33;5.00;;;32.20;22.20;;;;;;10380929;28;20230;-73
2022/06/20 12:26:06;;;;;;;8.10;4.90;;;32.10;22.20;;;;;;10377449;28;20717;-73
2022/06/20 12:31:17;;;;;;;5.63;5.00;;;32.00;22.40;;;;;;10386854;28;20228;-73
2022/06/20 12:36:28;;;;;;;6.40;5.03;;;32.00;21.40;;;;;;10383976;28;20230;-72
2022/06/20 12:41:38;;;;;;;7.43;5.37;;;32.00;22.10;;;;;;10389132;28;20976;-72
2022/06/20 12:47:05;;;;;;;5.77;5.27;;;32.00;22.20;;;;;;10392305;28;20772;-73
2022/06/20 12:52:18;;;;;;;5.40;4.90;;;31.90;22.00;;;;;;10388384;28;20299;-73
2022/06/20 12:57:53;;;;;;;5.77;5.27;;;31.80;22.00;;;;;;10352003;28;20226;-71
2022/06/20 13:03:25;;;;;;;7.80;5.50;;;31.70;22.50;;;;;;10355100;28;20218;-71
2022/06/20 13:09:01;;;;;;;8.80;5.43;;;31.80;22.10;;;;;;10347848;28;20857;-70
2022/06/20 13:14:34;;;;;;;7.00;6.17;;;31.80;22.20;;;;;;10369562;28;20272;-72
2022/06/20 13:19:51;;;;;;;7.63;5.80;;;31.90;22.10;;;;;;10382296;28;20796;-76
2022/06/20 13:25:06;;;;;;;6.43;5.87;;;31.90;22.10;;;;;;10391311;28;20217;-70
2022/06/20 13:30:20;;;;;;;6.10;5.47;;;31.90;22.10;;;;;;10387612;28;20597;-75
2022/06/20 13:35:29;;;;;;;6.83;6.23;;;32.00;22.10;;;;;;10389041;28;20234;-75
2022/06/20 13:40:49;;;;;;;8.13;6.30;;;32.00;22.10;;;;;;10391375;28;20567;-75
2022/06/20 13:45:59;;;;;;;8.27;6.30;;;32.10;22.20;;;;;;10388598;28;20229;-70
2022/06/20 13:51:13;;;;;;;6.13;5.67;;;32.00;22.10;;;;;;10387390;28;20332;-75
2022/06/20 13:56:27;;;;;;;6.10;5.30;;;32.00;22.20;;;;;;10390805;28;20877;-75
2022/06/20 14:01:36;;;;;;;7.17;4.90;;;31.90;22.00;;;;;;10380022;28;20228;-70
2022/06/20 14:06:49;;;;;;;9.27;4.83;;;31.80;21.50;;;;;;10391786;28;20241;-73
2022/06/20 14:11:59;;;;;;;7.67;4.07;;;31.60;22.50;;;;;;10387693;28;20230;-73
2022/06/20 14:17:07;;;;;;;5.50;4.03;;;31.10;24.10;;;;;;10387764;28;20213;-75
2022/06/20 14:22:23;;;;;;;7.17;4.33;;;30.40;25.00;;;;;;10388159;28;20227;-76
2022/06/20 14:27:29;;;;;;;5.93;3.87;;;29.80;25.80;;;;;;10392771;28;20239;-76
2022/06/20 14:32:45;;;;;;;5.17;3.87;;;29.40;26.10;;;;;;10388553;28;20233;-75
2022/06/20 14:37:56;;;;;;;6.27;4.30;;;29.20;27.70;;;;;;10384463;28;20225;-75
2022/06/20 14:43:08;;;;;;;5.50;4.60;;;28.90;27.80;;;;;;10389694;28;20225;-75
2022/06/20 14:48:22;;;;;;;4.43;3.70;;;28.70;28.60;;;;;;10385293;28;20874;-75
2022/06/20 14:53:39;;;;;;;6.10;3.37;;;28.60;28.10;;;;;;10390659;28;20229;-75
2022/06/20 14:58:46;;;;;;;4.90;3.03;;;28.50;27.30;;;;;;10395917;28;20318;-75
2022/06/20 15:03:57;;;;;;;4.50;3.40;;;28.50;27.20;;;;;;10398083;28;20247;-75
2022/06/20 15:09:14;;;;;;;3.37;3.07;;;28.50;27.10;;;;;;10395736;28;20253;-75
2022/06/20 15:14:26;;;;;;;4.63;2.97;;;28.50;26.90;;;;;;10372314;28;20619;-75
2022/06/20 15:19:39;;;;;;;4.30;2.90;;;28.40;26.50;;;;;;10361485;28;20239;-75
2022/06/20 15:24:50;;;;;;;3.10;2.70;;;28.40;26.50;;;;;;10390391;28;20226;-75
2022/06/20 15:30:36;;;;;;;8.67;3.10;;;28.30;26.60;;;;;;10395575;28;20304;-75
2022/06/20 15:35:56;;;;;;;2.90;2.30;;;28.20;26.40;;;;;;10283246;28;20321;-75
2022/06/20 15:41:09;;;;;;;3.73;2.53;;;28.10;26.30;;;;;;10353131;28;20226;-75
2022/06/20 15:46:17;;;;;;;4.07;2.50;;;28.10;26.00;;;;;;10379506;28;20230;-75
2022/06/20 15:51:32;;;;;;;3.47;2.40;;;28.00;26.20;;;;;;10360619;28;20304;-75
2022/06/20 15:56:48;;;;;;;5.53;2.70;;;27.90;26.50;;;;;;10353326;28;20723;-76
2022/06/20 16:02:24;;;;;;;3.37;2.60;;;27.70;26.90;;;;;;10359597;28;20225;-79
2022/06/20 16:07:38;;;;;;;3.83;2.80;;;27.70;27.20;;;;;;10386048;28;20307;-75
2022/06/20 16:12:51;;;;;;;2.90;2.53;;;27.60;26.90;;;;;;10385544;28;20233;-75
2022/06/20 16:17:57;;;;;;;3.20;2.90;;;27.60;27.20;;;;;;10347568;28;20318;-75
2022/06/20 16:23:09;;;;;;;2.83;2.50;;;27.60;27.10;;;;;;10376616;28;20234;-75
2022/06/20 16:28:24;;;;;;;2.83;2.53;;;27.50;27.30;;;;;;10388006;28;20237;-75
2022/06/20 16:33:27;;;;;;;3.77;2.50;;;27.50;27.30;;;;;;10389595;28;20233;-75
2022/06/20 16:38:30;;;;;;;2.77;2.30;;;27.50;26.70;;;;;;10389515;28;20237;-75
2022/06/20 16:43:40;;;;;;;2.73;2.20;;;27.50;26.70;;;;;;10375643;28;20235;-75
2022/06/20 16:49:03;;;;;;;3.27;2.37;;;27.40;27.40;;;;;;10351089;28;20240;-75
2022/06/20 16:54:16;;;;;;;4.13;2.50;;;27.30;27.40;;;;;;10377280;28;20976;-75
2022/06/20 16:59:29;;;;;;;2.60;2.40;;;27.30;27.70;;;;;;10376862;28;20221;-75
2022/06/20 17:04:43;;;;;;;2.90;2.50;;;27.30;27.50;;;;;;10370057;28;20614;-75
2022/06/20 17:09:56;;;;;;;5.87;2.77;;;27.30;27.60;;;;;;10354973;28;20309;-75
2022/06/20 17:15:18;;;;;;;3.83;2.50;;;27.30;27.60;;;;;;10351742;28;20662;-75
2022/06/20 17:20:29;;;;;;;3.17;2.53;;;27.20;27.70;;;;;;10368580;28;20237;-75
2022/06/20 17:25:49;;;;;;;3.93;2.87;;;27.00;27.70;;;;;;10386990;28;20225;-75
2022/06/20 17:31:01;;;;;;;3.87;2.50;;;26.90;28.30;;;;;;10381392;28;20561;-72
2022/06/20 17:36:14;;;;;;;3.73;2.90;;;26.70;28.40;;;;;;10374152;28;20264;-73
2022/06/20 17:41:26;;;;;;;4.47;2.70;;;26.60;29.00;;;;;;10386644;28;20230;-72
2022/06/20 17:46:42;;;;;;;3.20;2.80;;;26.40;29.20;;;;;;10344679;28;20242;-73
2022/06/20 17:51:57;;;;;;;3.17;2.90;;;26.20;29.30;;;;;;10383110;28;20229;-73
2022/06/20 17:57:08;;;;;;;3.77;3.10;;;26.10;29.30;;;;;;10370698;28;20225;-73
2022/06/20 18:02:18;;;;;;;4.13;2.93;;;25.90;29.10;;;;;;10362645;28;20229;-73
2022/06/20 18:07:26;;;;;;;3.97;3.00;;;25.80;29.60;;;;;;10343561;28;20791;-73
2022/06/20 18:12:38;;;;;;;3.90;2.77;;;25.70;29.30;;;;;;10386629;28;20225;-73
2022/06/20 18:17:51;;;;;;;4.10;3.13;;;25.60;29.90;;;;;;10386319;28;20240;-73
2022/06/20 18:23:03;;;;;;;3.10;2.90;;;25.60;30.00;;;;;;10349173;28;20613;-71
2022/06/20 18:28:14;;;;;;;2.87;2.57;;;25.50;30.00;;;;;;10365096;28;20237;-72
2022/06/20 18:33:24;;;;;;;3.43;2.80;;;25.50;29.70;;;;;;10394954;28;20232;-72
2022/06/20 18:38:29;;;;;;;3.60;3.00;;;25.40;30.10;;;;;;10343097;28;20237;-71
2022/06/20 18:43:42;;;;;;;2.90;2.70;;;25.40;29.70;;;;;;10355167;28;20547;-76
2022/06/20 18:49:12;;;;;;;4.07;3.20;;;25.30;30.70;;;;;;10384938;28;20229;-72
2022/06/20 18:54:23;;;;;;;3.10;2.90;;;25.20;30.60;;;;;;10378206;28;20228;-77
2022/06/20 18:59:47;;;;;;;3.53;2.67;;;25.10;30.80;;;;;;10378945;28;20924;-72
2022/06/20 19:05:17;;;;;;;3.90;3.00;;;25.00;31.20;;;;;;10341357;28;20334;-76
2022/06/20 19:10:48;;;;;;;3.37;2.77;;;24.90;31.50;;;;;;10372786;28;20220;-71
2022/06/20 19:16:09;;;;;;;3.20;2.90;;;24.80;31.30;;;;;;10344814;28;20230;-72
2022/06/20 19:21:46;;;;;;;2.97;2.77;;;24.80;30.90;;;;;;10347147;28;20226;-71
2022/06/20 19:26:59;;;;;;;2.50;2.30;;;24.70;31.20;;;;;;10363196;28;20305;-77
2022/06/20 19:32:09;;;;;;;2.67;2.47;;;24.60;31.40;;;;;;10389417;28;20334;-77
2022/06/20 19:37:14;;;;;;;2.73;2.30;;;24.50;30.80;;;;;;10358110;28;20221;-71
2022/06/20 19:42:29;;;;;;;2.43;2.23;;;24.50;30.70;;;;;;10350879;28;20230;-71
2022/06/20 19:47:55;;;;;;;2.50;2.30;;;24.40;31.40;;;;;;10357800;28;20233;-71
2022/06/20 19:53:10;;;;;;;4.23;2.23;;;24.30;31.40;;;;;;10370990;28;20220;-72
2022/06/20 19:58:35;;;;;;;2.67;2.30;;;24.20;31.10;;;;;;10385178;28;20240;-72
2022/06/20 20:03:41;;;;;;;2.10;2.00;;;24.10;32.00;;;;;;10390645;28;20221;-71
2022/06/20 20:08:48;;;;;;;2.10;2.00;;;24.00;31.10;;;;;;10390718;28;20789;-71
2022/06/20 20:13:57;;;;;;;2.10;2.00;;;23.90;31.50;;;;;;10394732;28;20229;-71
2022/06/20 20:19:15;;;;;;;2.00;1.90;;;23.90;32.10;;;;;;10391618;28;20232;-71
2022/06/20 20:24:24;;;;;;;1.83;1.73;;;23.80;32.20;;;;;;10352335;28;20686;-71
2022/06/20 20:30:07;;;;;;;1.47;1.37;;;23.80;31.80;;;;;;10365927;28;21206;-71
2022/06/20 20:35:30;;;;;;;1.70;1.60;;;23.80;31.70;;;;;;10394062;28;20228;-71
2022/06/20 20:40:44;;;;;;;1.47;1.37;;;23.80;31.50;;;;;;10393217;28;20225;-71
2022/06/20 20:46:21;;;;;;;1.43;1.43;;;23.80;31.30;;;;;;10395004;28;20230;-71
2022/06/20 20:51:27;;;;;;;1.70;1.40;;;23.90;31.20;;;;;;10357030;28;20229;-71
2022/06/20 20:56:37;;;;;;;1.47;1.37;;;23.80;30.30;;;;;;10362608;28;20221;-71
2022/06/20 21:01:44;;;;;;;1.10;1.10;;;23.70;30.50;;;;;;10364233;28;20236;-71
2022/06/20 21:06:54;;;;;;;1.70;1.30;;;23.60;30.20;;;;;;10372367;28;20229;-71
2022/06/20 21:11:58;;;;;;;1.43;1.07;;;23.50;30.10;;;;;;10395371;28;20226;-71
2022/06/20 21:17:06;;;;;;;1.30;1.20;;;23.40;30.00;;;;;;10393347;28;20710;-73
2022/06/20 21:22:15;;;;;;;1.30;1.17;;;23.30;30.30;;;;;;10395291;28;20226;-71
2022/06/20 21:27:22;;;;;;;1.53;0.90;;;23.30;30.40;;;;;;10395554;28;20232;-71
2022/06/20 21:32:30;;;;;;;1.50;1.00;;;23.20;30.20;;;;;;10388021;28;20233;-71
2022/06/20 21:37:35;;;;;;;1.50;0.90;;;23.20;30.00;;;;;;10406258;28;20955;-71
2022/06/20 21:42:42;;;;;;;1.00;1.00;;;23.10;30.00;;;;;;10363850;28;20221;-71
2022/06/20 21:47:59;;;;;;;1.67;1.30;;;23.00;30.00;;;;;;10358430;28;20867;-71
2022/06/20 21:53:09;;;;;;;0.90;0.90;;;23.00;30.30;;;;;;10367751;28;20226;-72
2022/06/20 21:58:20;;;;;;;1.00;0.90;;;22.90;30.40;;;;;;10359947;28;20233;-71
2022/06/20 22:03:44;;;;;;;1.03;0.93;;;22.90;30.40;;;;;;10355875;28;20233;-71
2022/06/20 22:08:50;;;;;;;1.10;1.00;;;22.80;30.10;;;;;;10383264;28;21003;-71
2022/06/20 22:13:56;;;;;;;1.70;1.00;;;22.70;30.00;;;;;;10362662;28;20226;-72
2022/06/20 22:19:07;;;;;;;2.10;0.90;;;22.60;30.20;;;;;;10384324;28;20230;-71
2022/06/20 22:24:17;;;;;;;1.07;1.00;;;22.50;30.60;;;;;;10370105;28;20217;-71
2022/06/20 22:29:41;;;;;;;0.80;0.80;;;22.50;30.70;;;;;;10393669;28;20245;-71
2022/06/20 22:34:48;;;;;;;1.13;0.90;;;22.40;30.50;;;;;;10356470;28;20229;-71
2022/06/20 22:39:54;;;;;;;1.00;1.00;;;22.40;30.30;;;;;;10388394;28;20234;-71
2022/06/20 22:44:59;;;;;;;0.80;0.80;;;22.30;30.40;;;;;;10377357;28;20596;-71
2022/06/20 22:50:05;;;;;;;1.97;1.10;;;22.20;30.10;;;;;;10390872;28;20224;-72
2022/06/20 22:55:15;;;;;;;2.40;1.07;;;22.20;30.40;;;;;;10395986;28;20623;-77
2022/06/20 23:00:25;;;;;;;0.70;0.70;;;22.10;30.30;;;;;;10391175;28;20221;-77
2022/06/20 23:05:35;;;;;;;0.87;0.87;;;22.00;30.00;;;;;;10381040;28;20770;-77
2022/06/20 23:10:38;;;;;;;0.70;0.70;;;21.90;30.10;;;;;;10353880;28;20237;-77
2022/06/20 23:15:41;;;;;;;0.87;0.80;;;21.80;30.00;;;;;;10357798;28;20240;-77
2022/06/20 23:20:49;;;;;;;0.80;0.80;;;21.80;30.00;;;;;;10368756;28;20253;-77
2022/06/20 23:25:52;;;;;;;1.37;0.70;;;21.70;30.10;;;;;;10380419;28;22383;-77
2022/06/20 23:30:56;;;;;;;1.83;0.73;;;21.60;30.00;;;;;;10390337;28;20222;-77
2022/06/20 23:36:00;;;;;;;0.77;0.77;;;21.60;29.90;;;;;;10355191;28;20618;-77
2022/06/20 23:41:03;;;;;;;1.20;1.10;;;21.50;29.80;;;;;;10374953;28;20233;-77
2022/06/20 23:46:07;;;;;;;1.03;0.90;;;21.40;29.80;;;;;;10393013;28;20722;-76
2022/06/20 23:51:15;;;;;;;1.37;1.00;;;21.30;29.90;;;;;;10385824;28;20713;-77
2022/06/20 23:56:20;;;;;;;1.00;1.00;;;21.20;29.80;;;;;;10386206;28;20233;-78
